Time;durP1;ratioP1;P1;durP2;ratioP2;P2;SDS_P1;SDS_P2;PMS_P1;PMS_P2;Temp;Humidity;BMP_temperature;BMP_pressure;BME280_temperature;BME280_humidity;BME280_pressure;Samples;Min_cycle;Max_cycle;Signal;HPM_P1;HPM_P2
2021/01/18 00:05:13;;;;;;;;;;;;;;;2.11;94.75;101878.69;4873290;29;19931;-76
2021/01/18 00:08:12;;;;;;;;;;;;;;;2.08;94.67;101878.25;4874937;29;19924;-76
2021/01/18 00:11:03;;;;;;;;;;;;;;;;;;;;;
2021/01/18 00:14:00;;;;;;;;;;;;;;;2.05;94.76;101884.16;4957177;28;19914;-77
2021/01/18 00:16:38;;;;;;;;;;;;;;;2.01;94.79;101870.03;4905278;29;19923;-76
2021/01/18 00:33:54;;;;;;;;;;;;;;;;;;;;;
2021/01/18 00:37:14;;;;;;;;;;;;;;;1.89;nan;101847.81;4951875;28;19950;-77
2021/01/18 00:40:37;;;;;;;;;;;;;;;1.88;94.70;101848.03;4935924;28;19921;-76
2021/01/18 00:43:25;;;;;;;;;;;;;;;1.84;94.75;101844.88;4906355;29;20010;-76
2021/01/18 00:46:22;;;;;;;;;;;;;;;1.82;94.74;101844.22;4944981;29;19919;-76
2021/01/18 00:49:08;;;;;;;;;;;;;;;1.78;94.72;101840.19;4940864;28;20070;-76
2021/01/18 00:58:57;;;;;;;;;;;;;;;1.71;94.77;101822.88;4972455;28;20414;-76
2021/01/18 01:02:07;;;;;;;;;;;;;;;;;;;;;
2021/01/18 01:08:29;;;;;;;;;;;;;;;1.63;94.90;101807.47;5001628;28;19928;-76
2021/01/18 01:18:34;;;;;;;;;;;;;;;;;;;;;
2021/01/18 01:31:29;;;;;;;;;;;;;;;1.58;94.83;101800.91;4961251;28;20463;-77
2021/01/18 01:35:00;;;;;;;;;;;;;;;;;;;;;
2021/01/18 01:45:27;;;;;;;;;;;;;;;;;;;;;
2021/01/18 01:48:20;;;;;;;;;;;;;;;1.54;94.68;101795.00;4940980;29;19919;-76
2021/01/18 01:51:24;;;;;;;;;;;;;;;1.51;94.56;101792.66;4909059;29;19934;-76
2021/01/18 01:54:34;;;;;;;;;;;;;;;1.47;94.74;101786.72;4918673;29;20005;-76
2021/01/18 01:57:35;;;;;;;;;;;;;;;1.48;94.60;101780.22;4917202;29;20356;-76
2021/01/18 02:00:31;;;;;;;;;;;;;;;1.47;94.56;101788.63;4946164;29;19927;-76
2021/01/18 02:03:10;;;;;;;;;;;;;;;1.45;94.37;101786.09;4921145;29;19962;-76
2021/01/18 02:05:49;;;;;;;;;;;;;;;1.42;94.48;101786.50;4926562;29;20020;-77
2021/01/18 02:08:20;;;;;;;;;;;;;;;1.38;94.49;101779.75;4907607;29;20402;-76
2021/01/18 02:11:40;;;;;;;;;;;;;;;1.33;94.45;101782.22;4910192;29;20001;-76
2021/01/18 02:14:17;;;;;;;;;;;;;;;1.32;94.38;101777.81;5002146;28;19916;-76
2021/01/18 02:16:46;;;;;;;;;;;;;;;1.32;94.24;101777.81;5039694;28;19920;-76
2021/01/18 02:19:32;;;;;;;;;;;;;;;1.28;94.24;101782.84;5090062;28;19917;-76
2021/01/18 02:22:20;;;;;;;;;;;;;;;1.27;94.23;101777.56;5081953;28;19917;-76
2021/01/18 02:25:10;;;;;;;;;;;;;;;1.25;94.18;101779.66;5076390;28;20023;-76
2021/01/18 02:28:09;;;;;;;;;;;;;;;1.23;94.15;101770.81;5064327;28;19967;-76
2021/01/18 02:30:50;;;;;;;;;;;;;;;1.20;94.05;101779.41;5062001;28;19919;-76
2021/01/18 02:33:16;;;;;;;;;;;;;;;1.16;94.20;101776.25;5030095;28;19927;-75
2021/01/18 02:35:53;;;;;;;;;;;;;;;1.14;94.20;101766.53;5045178;28;21076;-76
2021/01/18 02:38:56;;;;;;;;;;;;;;;;;;;;;
2021/01/18 02:46:12;;;;;;;;;;;;;;;1.06;94.19;101768.41;5006608;28;19928;-79
2021/01/18 02:52:45;;;;;;;;;;;;;;;1.02;94.33;101774.47;4965207;28;19918;-76
2021/01/18 02:55:59;;;;;;;;;;;;;;;0.99;94.39;101763.94;4950043;28;20377;-76
2021/01/18 02:58:46;;;;;;;;;;;;;;;0.97;94.33;101760.53;4985189;28;20302;-77
2021/01/18 03:01:40;;;;;;;;;;;;;;;0.96;94.44;101758.84;5048895;28;19916;-77
2021/01/18 03:05:05;;;;;;;;;;;;;;;0.94;94.39;101744.53;4961088;28;19922;-76
2021/01/18 03:08:06;;;;;;;;;;;;;;;0.91;94.64;101745.78;5056393;28;19923;-76
2021/01/18 03:22:27;;;;;;;;;;;;;;;0.86;94.65;101737.31;4847391;29;20378;-77
2021/01/18 03:26:02;;;;;;;;;;;;;;;;;;;;;
2021/01/18 03:29:09;;;;;;;;;;;;;;;;;;;;;
2021/01/18 03:32:20;;;;;;;;;;;;;;;;;;;;;
2021/01/18 03:35:25;;;;;;;;;;;;;;;0.82;94.71;101739.59;4885080;29;19927;-76
2021/01/18 03:38:19;;;;;;;;;;;;;;;0.80;94.68;101738.13;4884271;29;19923;-76
2021/01/18 03:41:31;;;;;;;;;;;;;;;;;;;;;
2021/01/18 03:44:14;;;;;;;;;;;;;;;0.77;94.67;101739.34;4933893;29;20022;-76
2021/01/18 03:47:30;;;;;;;;;;;;;;;0.79;94.68;101734.53;4934866;29;19979;-76
2021/01/18 03:50:38;;;;;;;;;;;;;;;0.77;94.76;101730.31;4921246;29;19934;-76
2021/01/18 03:53:36;;;;;;;;;;;;;;;0.73;94.66;101738.09;4946151;28;19917;-76
2021/01/18 03:57:03;;;;;;;;;;;;;;;;;;;;;
2021/01/18 03:59:59;;;;;;;;;;;;;;;0.68;94.73;101729.63;4992778;28;19941;-76
2021/01/18 04:02:51;;;;;;;;;;;;;;;0.66;94.63;101727.06;5048199;28;19951;-76
2021/01/18 04:06:27;;;;;;;;;;;;;;;;;;;;;
2021/01/18 04:09:48;;;;;;;;;;;;;;;0.60;94.63;101732.50;5012334;28;19918;-76
2021/01/18 04:12:40;;;;;;;;;;;;;;;0.57;94.89;101741.09;4928153;29;19919;-76
2021/01/18 04:22:15;;;;;;;;;;;;;;;0.47;94.80;101744.16;4990267;28;19917;-76
2021/01/18 04:25:09;;;;;;;;;;;;;;;0.43;94.66;101742.88;5000718;28;19921;-76
2021/01/18 04:28:15;;;;;;;;;;;;;;;0.45;94.41;101735.34;5001078;28;19918;-76
2021/01/18 04:38:13;;;;;;;;;;;;;;;0.36;94.20;101720.97;4966936;28;19918;-76
2021/01/18 04:44:25;;;;;;;;;;;;;;;0.21;94.41;101714.72;4992407;28;19922;-76
2021/01/18 04:47:04;;;;;;;;;;;;;;;0.14;94.45;101717.41;4999077;28;19917;-76
2021/01/18 04:50:35;;;;;;;;;;;;;;;0.14;94.25;101722.88;5007909;28;19964;-76
2021/01/18 04:53:12;;;;;;;;;;;;;;;0.15;93.99;101726.44;5021479;28;19917;-76
2021/01/18 04:55:59;;;;;;;;;;;;;;;0.09;94.04;101725.34;5061777;28;20033;-76
2021/01/18 04:58:31;;;;;;;;;;;;;;;0.06;93.95;101717.53;5039257;28;19925;-76
2021/01/18 05:01:15;;;;;;;;;;;;;;;0.01;93.99;101721.88;5043730;28;19916;-76
2021/01/18 05:07:12;;;;;;;;;;;;;;;-0.09;94.04;101727.66;5052756;28;19920;-76
2021/01/18 05:10:06;;;;;;;;;;;;;;;-0.10;94.05;101721.34;5057452;28;19916;-76
2021/01/18 05:13:07;;;;;;;;;;;;;;;-0.12;94.16;101719.84;4999628;28;19921;-77
2021/01/18 05:15:51;;;;;;;;;;;;;;;-0.15;94.20;101722.97;4975312;28;19922;-77
2021/01/18 05:50:42;;;;;;;;;;;;;;;;;;;;;
2021/01/18 05:56:47;;;;;;;;;;;;;;;-0.47;93.78;101703.31;4892977;29;19920;-76
2021/01/18 05:59:19;;;;;;;;;;;;;;;-0.50;93.83;101701.81;4916029;29;19919;-75
2021/01/18 06:01:52;;;;;;;;;;;;;;;-0.53;93.74;101707.66;4915335;29;19950;-76
2021/01/18 06:04:35;;;;;;;;;;;;;;;-0.55;93.59;101706.16;4900835;29;19923;-75
2021/01/18 06:07:14;;;;;;;;;;;;;;;-0.57;93.69;101697.31;4914811;29;19923;-76
2021/01/18 06:10:00;;;;;;;;;;;;;;;-0.60;93.74;101703.16;4890908;29;20395;-75
2021/01/18 06:12:31;;;;;;;;;;;;;;;-0.62;93.68;101705.22;4912137;28;19917;-75
2021/01/18 06:15:13;;;;;;;;;;;;;;;-0.63;93.76;101703.53;4972672;28;19918;-76
2021/01/18 06:17:45;;;;;;;;;;;;;;;-0.64;93.86;101707.28;4993636;28;19918;-76
2021/01/18 06:20:39;;;;;;;;;;;;;;;-0.66;93.97;101706.66;4964558;28;19964;-76
2021/01/18 06:23:09;;;;;;;;;;;;;;;-0.67;94.00;101716.69;5034215;28;20073;-75
2021/01/18 06:25:35;;;;;;;;;;;;;;;-0.68;94.16;101715.84;5043682;28;19974;-75
2021/01/18 06:28:06;;;;;;;;;;;;;;;-0.66;94.24;101720.28;5045646;28;20360;-77
2021/01/18 06:31:21;;;;;;;;;;;;;;;-0.65;94.39;101717.34;5095666;28;19920;-75
2021/01/18 06:33:56;;;;;;;;;;;;;;;-0.66;94.63;101717.56;5058704;28;19916;-75
2021/01/18 06:37:06;;;;;;;;;;;;;;;-0.65;94.67;101711.06;5045961;28;19956;-75
2021/01/18 06:40:20;;;;;;;;;;;;;;;-0.63;94.74;101723.47;5083442;28;20376;-76
2021/01/18 06:43:10;;;;;;;;;;;;;;;;;;;;;
2021/01/18 06:45:44;;;;;;;;;;;;;;;-0.57;95.08;101719.97;5089788;28;20456;-77
2021/01/18 06:48:21;;;;;;;;;;;;;;;-0.54;95.12;101714.13;5060870;28;19999;-77
2021/01/18 06:54:43;;;;;;;;;;;;;;;-0.45;95.19;101717.59;5081026;28;19916;-77
2021/01/18 06:57:31;;;;;;;;;;;;;;;-0.39;95.45;101716.84;5074834;28;19941;-77
2021/01/18 07:00:10;;;;;;;;;;;;;;;-0.35;95.44;101712.69;5071979;28;19927;-77
2021/01/18 07:02:46;;;;;;;;;;;;;;;-0.32;95.55;101720.47;5090641;28;19920;-77
2021/01/18 07:05:14;;;;;;;;;;;;;;;-0.28;95.63;101716.34;5078631;28;19920;-76
2021/01/18 07:07:42;;;;;;;;;;;;;;;-0.25;95.83;101717.84;5077286;28;19920;-77
2021/01/18 07:10:21;;;;;;;;;;;;;;;-0.21;95.91;101724.59;5061526;28;19920;-77
2021/01/18 07:12:50;;;;;;;;;;;;;;;-0.17;95.80;101719.59;5049405;28;19920;-76
2021/01/18 07:15:16;;;;;;;;;;;;;;;-0.13;95.81;101726.38;5078941;28;19999;-76
2021/01/18 07:17:54;;;;;;;;;;;;;;;-0.11;95.93;101724.25;5081073;28;20380;-77
2021/01/18 07:20:26;;;;;;;;;;;;;;;-0.07;95.87;101720.13;5063794;28;20395;-77
2021/01/18 07:23:15;;;;;;;;;;;;;;;-0.05;95.84;101710.69;5079675;28;19935;-77
2021/01/18 07:25:42;;;;;;;;;;;;;;;0.00;95.99;101715.59;5083651;28;19913;-76
2021/01/18 07:28:11;;;;;;;;;;;;;;;0.02;96.00;101718.94;5076460;28;19943;-76
2021/01/18 07:30:41;;;;;;;;;;;;;;;0.04;95.82;101716.88;5046979;28;19948;-76
2021/01/18 07:33:13;;;;;;;;;;;;;;;0.08;95.87;101718.16;5065236;28;19927;-78
2021/01/18 07:35:48;;;;;;;;;;;;;;;0.10;95.75;101710.63;5047193;28;19969;-76
2021/01/18 07:38:15;;;;;;;;;;;;;;;0.11;96.29;101717.81;5063084;28;19912;-77
2021/01/18 07:40:59;;;;;;;;;;;;;;;0.12;96.39;101722.22;5048016;28;19924;-76
2021/01/18 07:43:40;;;;;;;;;;;;;;;0.17;96.18;101717.00;5091516;28;20160;-76
2021/01/18 07:49:30;;;;;;;;;;;;;;;0.23;96.10;101723.56;5090468;28;19916;-77
2021/01/18 07:52:12;;;;;;;;;;;;;;;0.25;96.09;101729.66;5062442;28;19955;-76
2021/01/18 07:55:03;;;;;;;;;;;;;;;0.29;96.28;101732.88;5057818;28;20364;-76
2021/01/18 07:57:55;;;;;;;;;;;;;;;0.28;96.51;101740.22;5047151;28;19912;-77
2021/01/18 08:00:25;;;;;;;;;;;;;;;0.32;96.47;101735.22;5085717;28;20001;-76
2021/01/18 08:02:58;;;;;;;;;;;;;;;0.35;96.56;101738.38;5080093;28;19916;-76
2021/01/18 08:05:31;;;;;;;;;;;;;;;0.38;96.58;101737.16;5064675;28;19923;-76
2021/01/18 08:08:05;;;;;;;;;;;;;;;0.40;96.66;101744.13;5063825;28;20018;-76
2021/01/18 08:11:03;;;;;;;;;;;;;;;0.44;96.62;101741.81;5075819;28;19927;-76
2021/01/18 08:13:59;;;;;;;;;;;;;;;0.46;96.76;101734.28;5088358;28;19927;-76
2021/01/18 08:16:51;;;;;;;;;;;;;;;0.49;96.70;101730.31;5093237;28;20003;-76
2021/01/18 08:19:27;;;;;;;;;;;;;;;0.53;96.77;101732.47;5067038;28;19920;-76
2021/01/18 08:22:00;;;;;;;;;;;;;;;0.57;96.97;101728.28;5047951;28;19916;-76
2021/01/18 08:24:35;;;;;;;;;;;;;;;0.59;96.80;101731.66;5087763;28;20361;-76
2021/01/18 08:27:14;;;;;;;;;;;;;;;;;;;;;
2021/01/18 08:29:46;;;;;;;;;;;;;;;0.66;96.73;101731.69;5085716;28;19916;-76
2021/01/18 08:32:30;;;;;;;;;;;;;;;0.69;97.03;101731.31;5104537;28;20357;-76
2021/01/18 08:38:18;;;;;;;;;;;;;;;0.79;96.89;101733.69;5032070;28;19959;-77
2021/01/18 08:40:52;;;;;;;;;;;;;;;0.82;97.00;101728.66;5037959;28;19955;-76
2021/01/18 08:43:49;;;;;;;;;;;;;;;0.87;96.90;101739.88;5022807;28;19959;-76
2021/01/18 08:46:39;;;;;;;;;;;;;;;0.91;96.89;101740.31;5038890;28;19917;-77
2021/01/18 08:49:22;;;;;;;;;;;;;;;0.95;97.00;101735.25;5006055;28;19921;-76
2021/01/18 08:51:50;;;;;;;;;;;;;;;0.98;96.99;101735.72;5034384;28;19940;-76
2021/01/18 08:54:44;;;;;;;;;;;;;;;1.03;97.05;101732.38;5013077;28;20020;-76
2021/01/18 08:57:52;;;;;;;;;;;;;;;1.07;96.68;101729.03;5023732;28;20385;-77
2021/01/18 09:00:25;;;;;;;;;;;;;;;1.13;96.96;101721.06;5015357;28;19984;-77
2021/01/18 09:03:01;;;;;;;;;;;;;;;1.16;97.13;101710.56;5014941;28;19921;-77
2021/01/18 09:05:31;;;;;;;;;;;;;;;1.22;96.92;101717.13;5018820;28;19921;-76
2021/01/18 09:08:08;;;;;;;;;;;;;;;1.26;96.83;101716.53;5040549;28;19936;-77
2021/01/18 09:14:22;;;;;;;;;;;;;;;;;;;;;
2021/01/18 09:17:20;;;;;;;;;;;;;;;1.47;96.64;101712.81;5084368;28;19916;-77
2021/01/18 09:20:24;;;;;;;;;;;;;;;1.54;96.52;101716.44;5064204;28;20385;-77
2021/01/18 09:23:02;;;;;;;;;;;;;;;1.63;96.36;101721.72;5060964;28;20066;-76
2021/01/18 09:25:33;;;;;;;;;;;;;;;1.68;96.31;101719.22;5044823;28;19926;-76
2021/01/18 09:28:10;;;;;;;;;;;;;;;1.70;96.31;101720.72;5059199;28;19919;-77
2021/01/18 09:30:46;;;;;;;;;;;;;;;1.75;96.20;101712.69;5043984;28;19921;-77
2021/01/18 09:33:51;;;;;;;;;;;;;;;1.81;96.09;101718.41;5088314;28;19965;-76
2021/01/18 09:39:46;;;;;;;;;;;;;;;1.92;95.98;101717.78;5024864;28;19971;-76
2021/01/18 09:42:55;;;;;;;;;;;;;;;1.97;95.81;101720.75;4987426;28;19913;-76
2021/01/18 09:45:27;;;;;;;;;;;;;;;2.00;95.69;101715.69;5016653;28;19925;-76
2021/01/18 09:48:27;;;;;;;;;;;;;;;2.03;95.75;101730.88;5003067;28;20350;-76
2021/01/18 09:51:12;;;;;;;;;;;;;;;2.07;95.74;101726.69;5010521;28;19963;-76
2021/01/18 09:53:46;;;;;;;;;;;;;;;2.12;95.64;101720.59;5002063;28;19921;-76
2021/01/18 09:56:25;;;;;;;;;;;;;;;2.15;95.70;101715.53;5015223;28;19917;-76
2021/01/18 09:58:58;;;;;;;;;;;;;;;2.19;95.76;101715.94;5003009;28;19924;-74
2021/01/18 10:01:33;;;;;;;;;;;;;;;2.24;95.66;101706.03;5027512;28;19917;-76
2021/01/18 10:03:59;;;;;;;;;;;;;;;2.29;95.58;101708.16;5041870;28;20421;-74
2021/01/18 10:06:28;;;;;;;;;;;;;;;2.34;95.55;101721.22;5015499;28;20038;-75
2021/01/18 10:09:01;;;;;;;;;;;;;;;2.37;95.45;101718.09;5007681;28;20428;-75
2021/01/18 10:11:27;;;;;;;;;;;;;;;2.42;95.52;101713.66;5033512;28;19917;-75
2021/01/18 10:14:15;;;;;;;;;;;;;;;2.47;95.63;101713.84;5017783;28;20091;-75
2021/01/18 10:16:55;;;;;;;;;;;;;;;2.54;95.55;101719.34;5035274;28;19916;-75
2021/01/18 10:19:20;;;;;;;;;;;;;;;2.61;95.23;101722.09;5102092;28;19940;-75
2021/01/18 10:21:46;;;;;;;;;;;;;;;2.66;94.46;101736.00;5076924;28;20352;-75
2021/01/18 10:24:11;;;;;;;;;;;;;;;2.72;94.08;101737.91;5088949;28;19920;-74
2021/01/18 10:26:36;;;;;;;;;;;;;;;2.79;94.14;101730.53;5065751;28;19920;-75
2021/01/18 10:29:03;;;;;;;;;;;;;;;2.87;95.63;101729.44;5057945;28;19931;-74
2021/01/18 10:31:29;;;;;;;;;;;;;;;2.93;94.23;101722.28;5103266;28;19924;-74
2021/01/18 10:34:14;;;;;;;;;;;;;;;3.02;94.07;101726.47;5085775;28;20559;-75
2021/01/18 10:36:40;;;;;;;;;;;;;;;3.14;95.35;101732.97;5074315;28;19922;-75
2021/01/18 10:39:05;;;;;;;;;;;;;;;3.23;94.66;101726.22;5071127;28;19911;-75
2021/01/18 10:41:32;;;;;;;;;;;;;;;3.34;95.64;101714.56;5082525;28;20428;-75
2021/01/18 10:44:05;;;;;;;;;;;;;;;3.46;94.96;101711.13;5060089;28;20015;-76
2021/01/18 10:46:30;;;;;;;;;;;;;;;3.61;96.05;101713.59;5085148;28;19998;-75
2021/01/18 10:48:56;;;;;;;;;;;;;;;3.69;94.89;101710.59;5110021;28;19947;-75
2021/01/18 10:51:25;;;;;;;;;;;;;;;3.81;94.03;101698.69;5078469;28;19942;-74
2021/01/18 10:53:54;;;;;;;;;;;;;;;3.96;95.97;101714.06;5115641;28;19916;-74
2021/01/18 10:56:20;;;;;;;;;;;;;;;4.08;94.34;101711.44;5110190;28;20011;-75
2021/01/18 10:58:46;;;;;;;;;;;;;;;4.20;96.14;101707.75;5075528;28;19947;-75
2021/01/18 11:01:12;;;;;;;;;;;;;;;4.32;95.80;101704.25;5045881;28;19916;-75
2021/01/18 11:03:38;;;;;;;;;;;;;;;4.44;94.44;101708.00;5081628;28;19963;-75
2021/01/18 11:06:10;;;;;;;;;;;;;;;4.56;94.88;101691.59;5064067;28;19924;-75
2021/01/18 11:08:35;;;;;;;;;;;;;;;4.66;94.18;101692.78;5061252;28;19995;-75
2021/01/18 11:11:04;;;;;;;;;;;;;;;4.76;93.30;101697.75;5068729;28;20391;-75
2021/01/18 11:13:29;;;;;;;;;;;;;;;4.87;93.29;101686.00;5099458;28;19916;-75
2021/01/18 11:15:57;;;;;;;;;;;;;;;4.98;95.42;101681.66;5087864;28;20309;-75
2021/01/18 11:18:23;;;;;;;;;;;;;;;5.06;94.21;101673.09;5077535;28;19920;-75
2021/01/18 11:20:51;;;;;;;;;;;;;;;5.15;95.10;101668.13;5078840;28;19925;-75
2021/01/18 11:23:17;;;;;;;;;;;;;;;5.23;93.82;101662.28;5044474;28;19920;-75
2021/01/18 11:25:42;;;;;;;;;;;;;;;5.30;94.82;101656.72;5112239;28;19916;-75
2021/01/18 11:28:11;;;;;;;;;;;;;;;5.36;94.27;101647.53;5070973;28;19917;-75
2021/01/18 11:30:37;;;;;;;;;;;;;;;5.44;93.99;101649.97;5097313;28;20019;-75
2021/01/18 11:33:03;;;;;;;;;;;;;;;5.53;94.27;101644.97;5111423;28;19960;-75
2021/01/18 11:35:30;;;;;;;;;;;;;;;5.57;94.10;101638.78;5104942;28;19920;-75
2021/01/18 11:37:55;;;;;;;;;;;;;;;5.64;93.74;101629.56;5096295;28;19930;-75
2021/01/18 11:40:21;;;;;;;;;;;;;;;5.70;94.73;101625.88;5092052;28;19943;-75
2021/01/18 11:42:46;;;;;;;;;;;;;;;5.77;93.18;101616.44;5046972;28;20360;-75
2021/01/18 11:45:12;;;;;;;;;;;;;;;5.83;94.44;101614.66;5085622;28;20347;-75
2021/01/18 11:47:38;;;;;;;;;;;;;;;5.90;94.01;101615.38;5096862;28;19924;-74
2021/01/18 11:50:06;;;;;;;;;;;;;;;5.96;94.68;101610.84;5063358;28;19924;-75
2021/01/18 11:52:32;;;;;;;;;;;;;;;5.98;92.85;101609.53;5078983;28;19923;-75
2021/01/18 11:54:57;;;;;;;;;;;;;;;6.01;92.20;101603.56;5087009;28;19920;-75
2021/01/18 11:57:23;;;;;;;;;;;;;;;6.09;92.66;101609.81;5081780;28;19917;-75
2021/01/18 11:59:48;;;;;;;;;;;;;;;6.12;91.78;101604.66;5076710;28;20356;-75
2021/01/18 12:02:26;;;;;;;;;;;;;;;6.18;93.30;101608.38;5081626;28;19916;-75
2021/01/18 12:04:52;;;;;;;;;;;;;;;6.26;95.12;101610.78;5088493;28;19920;-75
2021/01/18 12:07:20;;;;;;;;;;;;;;;6.30;93.69;101606.50;5086316;28;19931;-75
2021/01/18 12:09:45;;;;;;;;;;;;;;;6.37;94.35;101595.31;5073738;28;19983;-75
2021/01/18 12:12:11;;;;;;;;;;;;;;;6.42;93.74;101589.94;5094399;28;20347;-75
2021/01/18 12:14:36;;;;;;;;;;;;;;;6.45;93.16;101582.00;5086714;28;20344;-75
2021/01/18 12:17:02;;;;;;;;;;;;;;;6.51;92.96;101580.19;5076886;28;19916;-75
2021/01/18 12:19:28;;;;;;;;;;;;;;;6.56;93.01;101576.72;5087118;28;19921;-75
2021/01/18 12:21:53;;;;;;;;;;;;;;;6.60;92.72;101566.88;5082212;28;19923;-75
2021/01/18 12:24:19;;;;;;;;;;;;;;;6.64;91.73;101562.56;5085620;28;19920;-75
2021/01/18 12:26:44;;;;;;;;;;;;;;;6.71;93.38;101557.72;5069882;28;19916;-75
2021/01/18 12:29:10;;;;;;;;;;;;;;;6.77;93.34;101548.50;5058020;28;19980;-75
2021/01/18 12:31:36;;;;;;;;;;;;;;;6.80;91.89;101545.25;5045870;28;19927;-75
2021/01/18 12:34:03;;;;;;;;;;;;;;;6.87;92.48;101542.34;5062215;28;20365;-75
2021/01/18 12:36:29;;;;;;;;;;;;;;;6.91;93.29;101525.06;5083209;28;19916;-75
2021/01/18 12:38:56;;;;;;;;;;;;;;;6.96;92.83;101528.97;5079200;28;19940;-75
2021/01/18 12:41:21;;;;;;;;;;;;;;;7.01;92.89;101523.56;5080861;28;19917;-75
2021/01/18 12:43:47;;;;;;;;;;;;;;;7.03;91.74;101515.88;5080370;28;19927;-74
2021/01/18 12:46:16;;;;;;;;;;;;;;;7.07;91.27;101506.84;5068294;28;20356;-74
2021/01/18 12:48:41;;;;;;;;;;;;;;;7.10;91.24;101511.03;5059991;28;19923;-74
2021/01/18 12:51:09;;;;;;;;;;;;;;;7.14;90.52;101506.72;5102747;28;20003;-74
2021/01/18 12:53:44;;;;;;;;;;;;;;;7.18;92.78;101496.00;5113745;28;19912;-75
2021/01/18 12:56:19;;;;;;;;;;;;;;;7.20;91.29;101494.66;5079695;28;20352;-75
2021/01/18 12:58:45;;;;;;;;;;;;;;;7.22;91.51;101494.44;5071515;28;20347;-75
2021/01/18 13:01:10;;;;;;;;;;;;;;;7.25;91.50;101500.28;5107855;28;19916;-75
2021/01/18 13:03:36;;;;;;;;;;;;;;;7.26;90.77;101490.91;5073076;28;19920;-75
2021/01/18 13:06:02;;;;;;;;;;;;;;;7.30;91.40;101489.34;5097338;28;20384;-75
2021/01/18 13:08:29;;;;;;;;;;;;;;;7.35;91.08;101489.44;5074832;28;19924;-75
2021/01/18 13:11:01;;;;;;;;;;;;;;;7.40;92.66;101488.66;5060111;28;20378;-75
2021/01/18 13:13:28;;;;;;;;;;;;;;;7.43;90.64;101492.84;5064454;28;19935;-75
2021/01/18 13:15:54;;;;;;;;;;;;;;;7.48;89.69;101499.31;5107729;27;19916;-74
2021/01/18 13:18:19;;;;;;;;;;;;;;;7.51;89.42;101486.94;5090833;28;19916;-75
2021/01/18 13:20:45;;;;;;;;;;;;;;;7.54;90.86;101487.25;5097791;28;19922;-74
2021/01/18 13:23:11;;;;;;;;;;;;;;;7.57;89.80;101477.63;5078637;28;19944;-75
2021/01/18 13:25:36;;;;;;;;;;;;;;;7.55;89.25;101477.91;5095095;28;19955;-74
2021/01/18 13:28:02;;;;;;;;;;;;;;;7.58;89.21;101484.84;5094849;28;19969;-74
2021/01/18 13:30:27;;;;;;;;;;;;;;;7.58;89.20;101473.78;5071632;28;19923;-75
2021/01/18 13:32:53;;;;;;;;;;;;;;;7.60;89.33;101477.13;5104711;28;19930;-75
2021/01/18 13:35:21;;;;;;;;;;;;;;;7.61;88.69;101465.81;5084800;28;19920;-75
2021/01/18 13:37:47;;;;;;;;;;;;;;;7.63;88.47;101471.09;5098573;28;19962;-75
2021/01/18 13:40:14;;;;;;;;;;;;;;;7.65;88.85;101468.91;5058867;28;19916;-75
2021/01/18 13:42:42;;;;;;;;;;;;;;;7.68;89.00;101465.66;5043666;28;19916;-74
2021/01/18 13:45:08;;;;;;;;;;;;;;;7.68;88.79;101462.06;5096380;28;19916;-74
2021/01/18 13:47:34;;;;;;;;;;;;;;;7.70;88.76;101459.88;5075657;28;19942;-75
2021/01/18 13:50:24;;;;;;;;;;;;;;;7.69;88.11;101459.03;5083750;28;19917;-76
2021/01/18 13:52:52;;;;;;;;;;;;;;;7.70;88.57;101457.94;5096563;28;19923;-74
2021/01/18 13:55:18;;;;;;;;;;;;;;;7.71;88.94;101448.53;5062111;28;19920;-74
2021/01/18 13:57:43;;;;;;;;;;;;;;;7.72;88.62;101450.25;5111321;28;19916;-74
2021/01/18 14:00:09;;;;;;;;;;;;;;;7.70;88.23;101441.34;5072828;28;20322;-74
2021/01/18 14:02:34;;;;;;;;;;;;;;;7.68;87.89;101440.75;5059097;28;20372;-74
2021/01/18 14:04:59;;;;;;;;;;;;;;;7.68;87.94;101446.28;5079607;28;20428;-74
2021/01/18 14:07:25;;;;;;;;;;;;;;;7.66;88.10;101437.44;5095073;28;19927;-74
2021/01/18 14:09:50;;;;;;;;;;;;;;;7.66;87.84;101436.56;5092653;28;20268;-74
2021/01/18 14:12:16;;;;;;;;;;;;;;;7.66;88.14;101431.91;5087573;28;19931;-74
2021/01/18 14:14:41;;;;;;;;;;;;;;;7.67;88.15;101441.03;5105834;28;19917;-74
2021/01/18 14:17:07;;;;;;;;;;;;;;;7.68;88.41;101434.41;5096062;28;19958;-74
2021/01/18 14:19:32;;;;;;;;;;;;;;;7.67;88.68;101428.03;5075381;28;20360;-74
2021/01/18 14:21:58;;;;;;;;;;;;;;;7.67;88.41;101429.97;5110954;28;19920;-74
2021/01/18 14:24:24;;;;;;;;;;;;;;;7.68;89.06;101423.34;5063391;28;19978;-75
2021/01/18 14:26:49;;;;;;;;;;;;;;;7.70;89.62;101422.00;5099119;28;19977;-74
2021/01/18 14:29:15;;;;;;;;;;;;;;;7.68;88.86;101423.34;5073448;28;19923;-75
2021/01/18 14:31:55;;;;;;;;;;;;;;;7.70;89.08;101415.63;5049105;28;19919;-80
2021/01/18 14:34:21;;;;;;;;;;;;;;;7.68;89.06;101410.34;5094554;28;19923;-74
2021/01/18 14:36:47;;;;;;;;;;;;;;;7.67;88.58;101411.44;5097282;28;19920;-74
2021/01/18 14:39:13;;;;;;;;;;;;;;;7.66;89.27;101404.25;5078534;28;19920;-74
2021/01/18 14:41:39;;;;;;;;;;;;;;;7.64;89.03;101411.13;5098276;28;19916;-74
2021/01/18 14:44:04;;;;;;;;;;;;;;;7.63;89.38;101409.44;5103987;28;19927;-74
2021/01/18 14:46:30;;;;;;;;;;;;;;;7.61;89.92;101410.53;5097650;28;19923;-74
2021/01/18 14:48:55;;;;;;;;;;;;;;;7.58;89.49;101405.50;5092610;28;19916;-74
2021/01/18 14:51:21;;;;;;;;;;;;;;;7.58;89.72;101404.69;5110346;28;19920;-74
2021/01/18 14:53:47;;;;;;;;;;;;;;;7.54;89.43;101406.25;5080734;28;20306;-74
2021/01/18 14:56:15;;;;;;;;;;;;;;;7.52;89.70;101402.91;5106366;28;19961;-74
2021/01/18 14:58:41;;;;;;;;;;;;;;;7.49;89.55;101392.34;5084219;28;20586;-74
2021/01/18 15:01:06;;;;;;;;;;;;;;;7.47;89.64;101395.38;5096887;28;19921;-74
2021/01/18 15:03:31;;;;;;;;;;;;;;;7.46;89.75;101396.44;5111644;28;20380;-72
2021/01/18 15:05:57;;;;;;;;;;;;;;;7.43;89.95;101388.66;5105653;28;19965;-72
2021/01/18 15:08:22;;;;;;;;;;;;;;;7.39;89.90;101388.34;5096320;28;19920;-72
2021/01/18 15:10:48;;;;;;;;;;;;;;;7.36;89.74;101376.97;5100963;28;20332;-71
2021/01/18 15:13:13;;;;;;;;;;;;;;;7.33;89.84;101369.19;5099311;28;19916;-72
2021/01/18 15:15:39;;;;;;;;;;;;;;;7.31;90.69;101368.59;5099786;28;19916;-72
2021/01/18 15:18:04;;;;;;;;;;;;;;;7.28;90.38;101369.91;5079237;28;19916;-72
2021/01/18 15:20:30;;;;;;;;;;;;;;;7.26;90.67;101368.50;5073491;28;20335;-72
2021/01/18 15:22:55;;;;;;;;;;;;;;;7.22;90.68;101359.88;5076503;28;19924;-72
2021/01/18 15:25:22;;;;;;;;;;;;;;;7.19;90.89;101365.91;5098152;28;19912;-72
2021/01/18 15:27:47;;;;;;;;;;;;;;;7.17;90.83;101365.31;5077507;28;20422;-72
2021/01/18 15:30:15;;;;;;;;;;;;;;;7.14;90.84;101363.88;5064643;28;19916;-72
2021/01/18 15:32:41;;;;;;;;;;;;;;;7.12;90.84;101359.69;5076056;28;20387;-72
2021/01/18 15:35:06;;;;;;;;;;;;;;;7.09;91.03;101362.97;5100119;28;19966;-72
2021/01/18 15:37:32;;;;;;;;;;;;;;;7.05;91.26;101359.00;5095052;28;19916;-72
2021/01/18 15:39:57;;;;;;;;;;;;;;;7.01;91.18;101353.16;5075101;28;20431;-72
2021/01/18 15:42:23;;;;;;;;;;;;;;;6.99;91.49;101348.97;5095005;28;19916;-71
2021/01/18 15:44:48;;;;;;;;;;;;;;;6.97;91.47;101345.66;5089647;28;19916;-72
2021/01/18 15:47:17;;;;;;;;;;;;;;;6.94;91.41;101342.28;5098351;28;19945;-72
2021/01/18 15:49:42;;;;;;;;;;;;;;;6.91;91.74;101344.72;5069525;28;19962;-72
2021/01/18 15:52:09;;;;;;;;;;;;;;;6.89;92.32;101336.66;5075668;28;19920;-71
2021/01/18 15:54:38;;;;;;;;;;;;;;;6.86;92.12;101339.94;5114714;28;20276;-78
2021/01/18 15:57:04;;;;;;;;;;;;;;;6.83;92.40;101332.16;5092349;28;19923;-71
2021/01/18 15:59:29;;;;;;;;;;;;;;;6.80;92.58;101327.13;5092028;28;19916;-72
2021/01/18 16:01:54;;;;;;;;;;;;;;;6.77;92.52;101333.16;5095692;28;19917;-72
2021/01/18 16:04:20;;;;;;;;;;;;;;;6.73;92.84;101337.47;5114308;28;19916;-71
2021/01/18 16:06:45;;;;;;;;;;;;;;;6.71;93.12;101326.69;5076369;28;20351;-72
2021/01/18 16:09:11;;;;;;;;;;;;;;;6.66;93.11;101329.38;5073690;28;20001;-71
2021/01/18 16:11:38;;;;;;;;;;;;;;;6.65;93.22;101332.34;5090640;28;19916;-72
2021/01/18 16:14:04;;;;;;;;;;;;;;;6.60;93.35;101323.97;5088942;28;19916;-71
2021/01/18 16:16:30;;;;;;;;;;;;;;;6.58;93.24;101331.69;5078877;28;19916;-71
2021/01/18 16:18:56;;;;;;;;;;;;;;;6.54;93.24;101330.50;5108064;28;19923;-71
2021/01/18 16:21:21;;;;;;;;;;;;;;;6.51;93.21;101319.94;5092294;28;19916;-71
2021/01/18 16:23:47;;;;;;;;;;;;;;;6.46;93.42;101313.25;5112008;28;19962;-72
2021/01/18 16:26:18;;;;;;;;;;;;;;;6.44;93.30;101317.34;5110093;28;20284;-71